sensor_id;sensor_type;location;lat;lon;timestamp;temperature;humidity
2200;DHT22;1106;48.762;9.168;2022-10-16T00:01:57;16.80;92.50
2200;DHT22;1106;48.762;9.168;2022-10-16T00:04:24;16.70;92.40
2200;DHT22;1106;48.762;9.168;2022-10-16T00:06:53;16.70;92.60
2200;DHT22;1106;48.762;9.168;2022-10-16T00:09:19;16.70;92.60
2200;DHT22;1106;48.762;9.168;2022-10-16T00:11:46;16.70;92.60
2200;DHT22;1106;48.762;9.168;2022-10-16T00:14:14;16.70;92.30
2200;DHT22;1106;48.762;9.168;2022-10-16T00:16:41;16.70;92.40
2200;DHT22;1106;48.762;9.168;2022-10-16T00:19:10;16.70;92.30
2200;DHT22;1106;48.762;9.168;2022-10-16T00:21:37;16.70;92.40
2200;DHT22;1106;48.762;9.168;2022-10-16T00:24:08;16.70;92.40
2200;DHT22;1106;48.762;9.168;2022-10-16T00:26:37;16.60;92.50
2200;DHT22;1106;48.762;9.168;2022-10-16T00:29:05;16.60;92.70
2200;DHT22;1106;48.762;9.168;2022-10-16T00:31:32;16.60;92.70
2200;DHT22;1106;48.762;9.168;2022-10-16T00:33:59;16.50;93.10
2200;DHT22;1106;48.762;9.168;2022-10-16T00:36:27;16.50;93.20
2200;DHT22;1106;48.762;9.168;2022-10-16T00:38:54;16.50;93.40
2200;DHT22;1106;48.762;9.168;2022-10-16T00:41:24;16.40;93.40
2200;DHT22;1106;48.762;9.168;2022-10-16T00:43:53;16.40;93.40
2200;DHT22;1106;48.762;9.168;2022-10-16T00:46:22;16.50;93.20
2200;DHT22;1106;48.762;9.168;2022-10-16T00:48:52;16.50;93.20
2200;DHT22;1106;48.762;9.168;2022-10-16T00:51:23;16.40;93.10
2200;DHT22;1106;48.762;9.168;2022-10-16T00:53:51;16.40;93.20
2200;DHT22;1106;48.762;9.168;2022-10-16T00:56:19;16.40;93.20
2200;DHT22;1106;48.762;9.168;2022-10-16T00:58:47;16.40;93.30
2200;DHT22;1106;48.762;9.168;2022-10-16T01:01:14;16.40;93.20
2200;DHT22;1106;48.762;9.168;2022-10-16T01:03:41;16.40;93.20
2200;DHT22;1106;48.762;9.168;2022-10-16T01:06:23;16.40;93.30
2200;DHT22;1106;48.762;9.168;2022-10-16T01:09:10;16.40;93.30
2200;DHT22;1106;48.762;9.168;2022-10-16T01:11:44;16.40;93.20
2200;DHT22;1106;48.762;9.168;2022-10-16T01:14:19;16.40;93.30
2200;DHT22;1106;48.762;9.168;2022-10-16T01:16:52;16.30;93.50
2200;DHT22;1106;48.762;9.168;2022-10-16T01:19:26;16.40;93.40
2200;DHT22;1106;48.762;9.168;2022-10-16T01:21:59;16.40;93.00
2200;DHT22;1106;48.762;9.168;2022-10-16T01:24:32;16.40;93.10
2200;DHT22;1106;48.762;9.168;2022-10-16T01:27:22;16.40;93.30
2200;DHT22;1106;48.762;9.168;2022-10-16T01:29:54;16.30;93.60
2200;DHT22;1106;48.762;9.168;2022-10-16T01:32:27;16.30;93.70
2200;DHT22;1106;48.762;9.168;2022-10-16T01:34:59;16.20;93.80
2200;DHT22;1106;48.762;9.168;2022-10-16T01:37:32;16.40;93.30
2200;DHT22;1106;48.762;9.168;2022-10-16T01:40:04;16.40;93.00
2200;DHT22;1106;48.762;9.168;2022-10-16T01:42:36;16.40;93.00
2200;DHT22;1106;48.762;9.168;2022-10-16T01:45:06;16.40;93.00
2200;DHT22;1106;48.762;9.168;2022-10-16T01:47:35;16.40;92.70
2200;DHT22;1106;48.762;9.168;2022-10-16T01:50:04;16.50;92.30
2200;DHT22;1106;48.762;9.168;2022-10-16T01:52:35;16.50;91.80
2200;DHT22;1106;48.762;9.168;2022-10-16T01:55:05;16.50;91.90
2200;DHT22;1106;48.762;9.168;2022-10-16T01:57:37;16.50;92.00
2200;DHT22;1106;48.762;9.168;2022-10-16T02:00:10;16.60;91.90
2200;DHT22;1106;48.762;9.168;2022-10-16T02:02:39;16.50;92.10
2200;DHT22;1106;48.762;9.168;2022-10-16T02:05:12;16.40;92.30
2200;DHT22;1106;48.762;9.168;2022-10-16T02:07:41;16.50;92.30
2200;DHT22;1106;48.762;9.168;2022-10-16T02:10:09;16.50;92.30
2200;DHT22;1106;48.762;9.168;2022-10-16T02:12:40;16.50;92.50
2200;DHT22;1106;48.762;9.168;2022-10-16T02:15:09;16.50;92.30
2200;DHT22;1106;48.762;9.168;2022-10-16T02:17:35;16.50;92.30
2200;DHT22;1106;48.762;9.168;2022-10-16T02:20:04;16.50;92.50
2200;DHT22;1106;48.762;9.168;2022-10-16T02:22:36;16.40;92.50
2200;DHT22;1106;48.762;9.168;2022-10-16T02:25:07;16.50;92.30
2200;DHT22;1106;48.762;9.168;2022-10-16T02:27:41;16.50;92.00
2200;DHT22;1106;48.762;9.168;2022-10-16T02:30:14;16.50;92.10
2200;DHT22;1106;48.762;9.168;2022-10-16T02:32:45;16.60;91.80
2200;DHT22;1106;48.762;9.168;2022-10-16T02:35:13;16.60;91.60
2200;DHT22;1106;48.762;9.168;2022-10-16T02:37:42;16.60;91.60
2200;DHT22;1106;48.762;9.168;2022-10-16T02:40:10;16.60;91.70
2200;DHT22;1106;48.762;9.168;2022-10-16T02:42:39;16.50;91.70
2200;DHT22;1106;48.762;9.168;2022-10-16T02:45:10;16.60;92.00
2200;DHT22;1106;48.762;9.168;2022-10-16T02:47:37;16.60;91.60
2200;DHT22;1106;48.762;9.168;2022-10-16T02:50:05;16.60;91.80
2200;DHT22;1106;48.762;9.168;2022-10-16T02:52:32;16.60;91.80
2200;DHT22;1106;48.762;9.168;2022-10-16T02:54:59;16.60;91.90
2200;DHT22;1106;48.762;9.168;2022-10-16T02:57:26;16.50;92.10
2200;DHT22;1106;48.762;9.168;2022-10-16T02:59:53;16.50;92.30
2200;DHT22;1106;48.762;9.168;2022-10-16T03:02:21;16.50;92.30
2200;DHT22;1106;48.762;9.168;2022-10-16T03:04:48;16.50;92.30
2200;DHT22;1106;48.762;9.168;2022-10-16T03:07:15;16.60;92.00
2200;DHT22;1106;48.762;9.168;2022-10-16T03:09:42;16.50;92.00
2200;DHT22;1106;48.762;9.168;2022-10-16T03:12:09;16.50;92.10
2200;DHT22;1106;48.762;9.168;2022-10-16T03:14:37;16.50;92.10
2200;DHT22;1106;48.762;9.168;2022-10-16T03:17:05;16.50;92.30
2200;DHT22;1106;48.762;9.168;2022-10-16T03:19:33;16.50;92.10
2200;DHT22;1106;48.762;9.168;2022-10-16T03:22:01;16.40;92.30
2200;DHT22;1106;48.762;9.168;2022-10-16T03:24:28;16.40;92.60
2200;DHT22;1106;48.762;9.168;2022-10-16T03:26:55;16.40;92.70
2200;DHT22;1106;48.762;9.168;2022-10-16T03:29:22;16.40;92.70
2200;DHT22;1106;48.762;9.168;2022-10-16T03:31:49;16.40;92.60
2200;DHT22;1106;48.762;9.168;2022-10-16T03:34:16;16.40;92.60
2200;DHT22;1106;48.762;9.168;2022-10-16T03:36:44;16.40;92.60
2200;DHT22;1106;48.762;9.168;2022-10-16T03:39:11;16.40;92.60
2200;DHT22;1106;48.762;9.168;2022-10-16T03:41:38;16.40;92.60
2200;DHT22;1106;48.762;9.168;2022-10-16T03:44:05;16.40;92.70
2200;DHT22;1106;48.762;9.168;2022-10-16T03:46:32;16.40;92.60
2200;DHT22;1106;48.762;9.168;2022-10-16T03:48:59;16.30;92.90
2200;DHT22;1106;48.762;9.168;2022-10-16T03:51:25;16.30;93.00
2200;DHT22;1106;48.762;9.168;2022-10-16T03:53:54;16.20;93.00
2200;DHT22;1106;48.762;9.168;2022-10-16T03:56:21;16.20;93.10
2200;DHT22;1106;48.762;9.168;2022-10-16T03:58:47;16.20;93.20
2200;DHT22;1106;48.762;9.168;2022-10-16T04:01:14;16.20;93.10
2200;DHT22;1106;48.762;9.168;2022-10-16T04:03:41;16.20;93.00
2200;DHT22;1106;48.762;9.168;2022-10-16T04:06:08;16.20;93.10
2200;DHT22;1106;48.762;9.168;2022-10-16T04:08:35;16.20;93.00
2200;DHT22;1106;48.762;9.168;2022-10-16T04:11:04;16.20;93.00
2200;DHT22;1106;48.762;9.168;2022-10-16T04:13:30;16.20;93.10
2200;DHT22;1106;48.762;9.168;2022-10-16T04:15:57;16.10;93.40
2200;DHT22;1106;48.762;9.168;2022-10-16T04:18:24;16.10;93.40
2200;DHT22;1106;48.762;9.168;2022-10-16T04:20:52;16.10;93.40
2200;DHT22;1106;48.762;9.168;2022-10-16T04:23:19;16.10;93.50
2200;DHT22;1106;48.762;9.168;2022-10-16T04:25:48;16.10;93.50
2200;DHT22;1106;48.762;9.168;2022-10-16T04:28:16;16.10;93.50
2200;DHT22;1106;48.762;9.168;2022-10-16T04:30:43;16.10;93.50
2200;DHT22;1106;48.762;9.168;2022-10-16T04:33:10;16.00;93.50
2200;DHT22;1106;48.762;9.168;2022-10-16T04:35:38;16.10;93.60
2200;DHT22;1106;48.762;9.168;2022-10-16T04:38:05;16.00;93.60
2200;DHT22;1106;48.762;9.168;2022-10-16T04:40:32;16.10;93.60
2200;DHT22;1106;48.762;9.168;2022-10-16T04:43:01;16.00;93.90
2200;DHT22;1106;48.762;9.168;2022-10-16T04:45:29;16.00;93.90
2200;DHT22;1106;48.762;9.168;2022-10-16T04:47:57;16.00;93.80
2200;DHT22;1106;48.762;9.168;2022-10-16T04:50:24;16.00;93.60
2200;DHT22;1106;48.762;9.168;2022-10-16T04:52:51;16.10;93.80
2200;DHT22;1106;48.762;9.168;2022-10-16T04:55:18;16.10;93.50
2200;DHT22;1106;48.762;9.168;2022-10-16T04:57:45;16.10;93.40
2200;DHT22;1106;48.762;9.168;2022-10-16T05:00:12;16.10;93.30
2200;DHT22;1106;48.762;9.168;2022-10-16T05:02:40;16.10;93.20
2200;DHT22;1106;48.762;9.168;2022-10-16T05:05:08;16.10;93.40
2200;DHT22;1106;48.762;9.168;2022-10-16T05:07:34;16.10;93.40
2200;DHT22;1106;48.762;9.168;2022-10-16T05:10:02;16.10;93.50
2200;DHT22;1106;48.762;9.168;2022-10-16T05:12:29;16.10;93.40
2200;DHT22;1106;48.762;9.168;2022-10-16T05:14:56;16.10;93.40
2200;DHT22;1106;48.762;9.168;2022-10-16T05:17:24;16.10;93.50
2200;DHT22;1106;48.762;9.168;2022-10-16T05:19:52;16.10;93.40
2200;DHT22;1106;48.762;9.168;2022-10-16T05:22:19;16.10;93.40
2200;DHT22;1106;48.762;9.168;2022-10-16T05:24:46;16.10;93.40
2200;DHT22;1106;48.762;9.168;2022-10-16T05:27:13;16.10;93.50
2200;DHT22;1106;48.762;9.168;2022-10-16T05:29:44;16.10;93.40
2200;DHT22;1106;48.762;9.168;2022-10-16T05:32:12;16.10;93.40
2200;DHT22;1106;48.762;9.168;2022-10-16T05:34:39;16.10;93.30
2200;DHT22;1106;48.762;9.168;2022-10-16T05:37:08;16.10;93.40
2200;DHT22;1106;48.762;9.168;2022-10-16T05:39:34;16.00;93.50
2200;DHT22;1106;48.762;9.168;2022-10-16T05:42:02;16.00;93.60
2200;DHT22;1106;48.762;9.168;2022-10-16T05:44:29;16.00;93.80
2200;DHT22;1106;48.762;9.168;2022-10-16T05:46:56;15.90;93.60
2200;DHT22;1106;48.762;9.168;2022-10-16T05:49:23;16.00;93.80
2200;DHT22;1106;48.762;9.168;2022-10-16T05:51:50;15.90;93.60
2200;DHT22;1106;48.762;9.168;2022-10-16T05:54:19;16.00;93.50
2200;DHT22;1106;48.762;9.168;2022-10-16T05:56:45;16.00;93.60
2200;DHT22;1106;48.762;9.168;2022-10-16T05:59:12;16.00;93.50
2200;DHT22;1106;48.762;9.168;2022-10-16T06:01:39;16.00;93.50
2200;DHT22;1106;48.762;9.168;2022-10-16T06:04:07;16.00;93.50
2200;DHT22;1106;48.762;9.168;2022-10-16T06:06:34;16.00;93.80
2200;DHT22;1106;48.762;9.168;2022-10-16T06:09:02;16.00;93.30
2200;DHT22;1106;48.762;9.168;2022-10-16T06:11:32;16.00;93.50
2200;DHT22;1106;48.762;9.168;2022-10-16T06:14:01;16.00;93.40
2200;DHT22;1106;48.762;9.168;2022-10-16T06:16:32;16.00;93.40
2200;DHT22;1106;48.762;9.168;2022-10-16T06:19:00;16.00;93.40
2200;DHT22;1106;48.762;9.168;2022-10-16T06:21:28;16.20;92.90
2200;DHT22;1106;48.762;9.168;2022-10-16T06:23:56;16.20;92.70
2200;DHT22;1106;48.762;9.168;2022-10-16T06:26:25;16.20;92.70
2200;DHT22;1106;48.762;9.168;2022-10-16T06:28:54;16.20;92.70
2200;DHT22;1106;48.762;9.168;2022-10-16T06:31:22;16.20;92.90
2200;DHT22;1106;48.762;9.168;2022-10-16T06:33:53;16.20;92.90
2200;DHT22;1106;48.762;9.168;2022-10-16T06:36:20;16.20;92.80
2200;DHT22;1106;48.762;9.168;2022-10-16T06:38:47;16.30;92.60
2200;DHT22;1106;48.762;9.168;2022-10-16T06:41:16;16.30;92.50
2200;DHT22;1106;48.762;9.168;2022-10-16T06:43:43;16.30;92.50
2200;DHT22;1106;48.762;9.168;2022-10-16T06:46:13;16.30;92.50
2200;DHT22;1106;48.762;9.168;2022-10-16T06:48:41;16.40;92.30
2200;DHT22;1106;48.762;9.168;2022-10-16T06:51:10;16.50;92.10
2200;DHT22;1106;48.762;9.168;2022-10-16T06:53:40;16.60;91.70
2200;DHT22;1106;48.762;9.168;2022-10-16T06:56:08;16.60;91.50
2200;DHT22;1106;48.762;9.168;2022-10-16T06:58:35;16.70;91.30
2200;DHT22;1106;48.762;9.168;2022-10-16T07:01:02;16.80;91.10
2200;DHT22;1106;48.762;9.168;2022-10-16T07:03:30;16.80;90.90
2200;DHT22;1106;48.762;9.168;2022-10-16T07:06:01;16.90;90.40
2200;DHT22;1106;48.762;9.168;2022-10-16T07:08:30;17.00;90.30
2200;DHT22;1106;48.762;9.168;2022-10-16T07:11:00;17.10;90.00
2200;DHT22;1106;48.762;9.168;2022-10-16T07:13:27;17.20;89.60
2200;DHT22;1106;48.762;9.168;2022-10-16T07:15:54;17.30;89.40
2200;DHT22;1106;48.762;9.168;2022-10-16T07:18:21;17.50;88.90
2200;DHT22;1106;48.762;9.168;2022-10-16T07:20:53;17.50;88.40
2200;DHT22;1106;48.762;9.168;2022-10-16T07:23:20;17.60;88.20
2200;DHT22;1106;48.762;9.168;2022-10-16T07:25:53;17.60;88.00
2200;DHT22;1106;48.762;9.168;2022-10-16T07:28:20;17.70;87.90
2200;DHT22;1106;48.762;9.168;2022-10-16T07:30:48;17.70;87.60
2200;DHT22;1106;48.762;9.168;2022-10-16T07:33:15;17.70;87.60
2200;DHT22;1106;48.762;9.168;2022-10-16T07:35:48;17.60;87.50
2200;DHT22;1106;48.762;9.168;2022-10-16T07:38:17;17.70;87.60
2200;DHT22;1106;48.762;9.168;2022-10-16T07:40:44;17.60;87.80
2200;DHT22;1106;48.762;9.168;2022-10-16T07:43:11;17.70;87.70
2200;DHT22;1106;48.762;9.168;2022-10-16T07:45:46;17.70;87.60
2200;DHT22;1106;48.762;9.168;2022-10-16T07:48:13;17.80;87.50
2200;DHT22;1106;48.762;9.168;2022-10-16T07:50:40;17.80;87.20
2200;DHT22;1106;48.762;9.168;2022-10-16T07:53:08;17.90;87.10
2200;DHT22;1106;48.762;9.168;2022-10-16T07:55:36;18.00;86.80
2200;DHT22;1106;48.762;9.168;2022-10-16T07:58:03;18.00;86.60
2200;DHT22;1106;48.762;9.168;2022-10-16T08:00:30;18.10;86.50
2200;DHT22;1106;48.762;9.168;2022-10-16T08:02:57;18.20;86.30
2200;DHT22;1106;48.762;9.168;2022-10-16T08:05:26;18.30;86.20
2200;DHT22;1106;48.762;9.168;2022-10-16T08:07:53;18.50;85.80
2200;DHT22;1106;48.762;9.168;2022-10-16T08:10:21;18.70;84.60
2200;DHT22;1106;48.762;9.168;2022-10-16T08:12:50;18.80;84.20
2200;DHT22;1106;48.762;9.168;2022-10-16T08:15:17;18.90;83.70
2200;DHT22;1106;48.762;9.168;2022-10-16T08:17:45;19.10;83.20
2200;DHT22;1106;48.762;9.168;2022-10-16T08:20:20;19.30;82.20
2200;DHT22;1106;48.762;9.168;2022-10-16T08:22:47;19.50;81.40
2200;DHT22;1106;48.762;9.168;2022-10-16T08:25:14;19.60;80.50
2200;DHT22;1106;48.762;9.168;2022-10-16T08:27:41;19.70;79.60
2200;DHT22;1106;48.762;9.168;2022-10-16T08:30:11;19.80;79.40
2200;DHT22;1106;48.762;9.168;2022-10-16T08:32:38;20.00;79.10
2200;DHT22;1106;48.762;9.168;2022-10-16T08:35:05;20.20;78.00
2200;DHT22;1106;48.762;9.168;2022-10-16T08:37:33;20.30;77.50
2200;DHT22;1106;48.762;9.168;2022-10-16T08:40:00;20.30;77.10
2200;DHT22;1106;48.762;9.168;2022-10-16T08:42:36;20.40;77.00
2200;DHT22;1106;48.762;9.168;2022-10-16T08:45:32;20.50;77.20
2200;DHT22;1106;48.762;9.168;2022-10-16T08:48:06;20.50;77.20
2200;DHT22;1106;48.762;9.168;2022-10-16T08:50:38;20.60;76.90
2200;DHT22;1106;48.762;9.168;2022-10-16T08:53:06;20.60;76.00
2200;DHT22;1106;48.762;9.168;2022-10-16T08:55:37;20.60;76.00
2200;DHT22;1106;48.762;9.168;2022-10-16T08:58:12;20.60;76.00
2200;DHT22;1106;48.762;9.168;2022-10-16T09:00:42;20.80;75.40
2200;DHT22;1106;48.762;9.168;2022-10-16T09:03:22;20.80;75.20
2200;DHT22;1106;48.762;9.168;2022-10-16T09:06:00;20.80;75.00
2200;DHT22;1106;48.762;9.168;2022-10-16T09:08:38;20.90;74.90
2200;DHT22;1106;48.762;9.168;2022-10-16T09:11:12;20.90;74.70
2200;DHT22;1106;48.762;9.168;2022-10-16T09:13:48;21.00;74.80
2200;DHT22;1106;48.762;9.168;2022-10-16T09:16:20;21.10;74.40
2200;DHT22;1106;48.762;9.168;2022-10-16T09:18:56;21.10;74.20
2200;DHT22;1106;48.762;9.168;2022-10-16T09:21:28;21.20;74.10
2200;DHT22;1106;48.762;9.168;2022-10-16T09:23:58;21.30;73.40
2200;DHT22;1106;48.762;9.168;2022-10-16T09:26:26;21.30;73.40
2200;DHT22;1106;48.762;9.168;2022-10-16T09:28:53;21.30;73.70
2200;DHT22;1106;48.762;9.168;2022-10-16T09:31:22;21.30;74.20
2200;DHT22;1106;48.762;9.168;2022-10-16T09:33:53;21.30;74.20
2200;DHT22;1106;48.762;9.168;2022-10-16T09:36:23;21.30;74.50
2200;DHT22;1106;48.762;9.168;2022-10-16T09:39:04;21.30;74.80
2200;DHT22;1106;48.762;9.168;2022-10-16T09:41:35;21.40;74.00
2200;DHT22;1106;48.762;9.168;2022-10-16T09:44:06;21.40;74.00
2200;DHT22;1106;48.762;9.168;2022-10-16T09:46:42;21.50;73.50
2200;DHT22;1106;48.762;9.168;2022-10-16T09:49:20;21.60;73.50
2200;DHT22;1106;48.762;9.168;2022-10-16T09:51:48;21.60;72.70
2200;DHT22;1106;48.762;9.168;2022-10-16T09:54:16;21.70;72.70
2200;DHT22;1106;48.762;9.168;2022-10-16T09:56:44;21.80;72.80
2200;DHT22;1106;48.762;9.168;2022-10-16T09:59:16;22.00;71.90
2200;DHT22;1106;48.762;9.168;2022-10-16T10:01:49;22.10;71.40
2200;DHT22;1106;48.762;9.168;2022-10-16T10:04:17;22.30;71.40
2200;DHT22;1106;48.762;9.168;2022-10-16T10:06:46;22.40;71.00
2200;DHT22;1106;48.762;9.168;2022-10-16T10:09:17;22.50;70.20
2200;DHT22;1106;48.762;9.168;2022-10-16T10:11:49;22.60;70.10
2200;DHT22;1106;48.762;9.168;2022-10-16T10:14:25;22.70;69.30
2200;DHT22;1106;48.762;9.168;2022-10-16T10:17:13;22.90;68.80
2200;DHT22;1106;48.762;9.168;2022-10-16T10:19:48;23.00;68.50
2200;DHT22;1106;48.762;9.168;2022-10-16T10:22:30;23.10;67.90
2200;DHT22;1106;48.762;9.168;2022-10-16T10:25:15;23.20;67.40
2200;DHT22;1106;48.762;9.168;2022-10-16T10:28:10;23.30;66.80
2200;DHT22;1106;48.762;9.168;2022-10-16T10:30:50;23.40;66.50
2200;DHT22;1106;48.762;9.168;2022-10-16T10:33:27;23.50;66.20
2200;DHT22;1106;48.762;9.168;2022-10-16T10:36:02;23.60;65.70
2200;DHT22;1106;48.762;9.168;2022-10-16T10:38:39;23.70;65.50
2200;DHT22;1106;48.762;9.168;2022-10-16T10:41:22;23.80;65.40
2200;DHT22;1106;48.762;9.168;2022-10-16T10:43:59;23.90;65.20
2200;DHT22;1106;48.762;9.168;2022-10-16T10:46:34;24.20;64.50
2200;DHT22;1106;48.762;9.168;2022-10-16T10:49:20;24.30;63.80
2200;DHT22;1106;48.762;9.168;2022-10-16T10:52:02;24.40;63.40
2200;DHT22;1106;48.762;9.168;2022-10-16T10:54:39;24.50;63.60
2200;DHT22;1106;48.762;9.168;2022-10-16T10:57:12;24.60;63.20
2200;DHT22;1106;48.762;9.168;2022-10-16T10:59:57;24.70;63.00
2200;DHT22;1106;48.762;9.168;2022-10-16T11:02:35;24.70;62.00
2200;DHT22;1106;48.762;9.168;2022-10-16T11:05:35;24.70;62.10
2200;DHT22;1106;48.762;9.168;2022-10-16T11:08:10;24.70;61.70
2200;DHT22;1106;48.762;9.168;2022-10-16T11:10:44;24.70;61.80
2200;DHT22;1106;48.762;9.168;2022-10-16T11:13:21;24.50;61.60
2200;DHT22;1106;48.762;9.168;2022-10-16T11:15:53;24.40;61.30
2200;DHT22;1106;48.762;9.168;2022-10-16T11:18:26;24.40;61.30
2200;DHT22;1106;48.762;9.168;2022-10-16T11:21:02;24.50;61.00
2200;DHT22;1106;48.762;9.168;2022-10-16T11:23:33;24.60;60.70
2200;DHT22;1106;48.762;9.168;2022-10-16T11:26:09;24.60;60.30
2200;DHT22;1106;48.762;9.168;2022-10-16T11:28:44;24.70;61.20
2200;DHT22;1106;48.762;9.168;2022-10-16T11:31:14;24.70;61.40
2200;DHT22;1106;48.762;9.168;2022-10-16T11:33:45;24.70;60.50
2200;DHT22;1106;48.762;9.168;2022-10-16T11:36:19;24.60;58.90
2200;DHT22;1106;48.762;9.168;2022-10-16T11:38:53;24.70;60.00
2200;DHT22;1106;48.762;9.168;2022-10-16T11:41:26;24.80;60.10
2200;DHT22;1106;48.762;9.168;2022-10-16T11:44:06;25.00;59.90
2200;DHT22;1106;48.762;9.168;2022-10-16T11:46:36;24.90;59.10
2200;DHT22;1106;48.762;9.168;2022-10-16T11:49:10;24.90;58.80
2200;DHT22;1106;48.762;9.168;2022-10-16T11:51:43;25.00;58.40
2200;DHT22;1106;48.762;9.168;2022-10-16T11:54:18;25.00;58.30
2200;DHT22;1106;48.762;9.168;2022-10-16T11:56:50;25.20;58.40
2200;DHT22;1106;48.762;9.168;2022-10-16T11:59:25;25.20;58.30
2200;DHT22;1106;48.762;9.168;2022-10-16T12:01:58;25.20;58.50
2200;DHT22;1106;48.762;9.168;2022-10-16T12:04:32;25.40;58.10
2200;DHT22;1106;48.762;9.168;2022-10-16T12:07:06;25.50;58.30
2200;DHT22;1106;48.762;9.168;2022-10-16T12:09:37;25.60;59.20
2200;DHT22;1106;48.762;9.168;2022-10-16T12:12:05;25.50;58.70
2200;DHT22;1106;48.762;9.168;2022-10-16T12:15:00;25.50;59.50
2200;DHT22;1106;48.762;9.168;2022-10-16T12:17:35;25.70;59.40
2200;DHT22;1106;48.762;9.168;2022-10-16T12:20:26;25.90;58.70
2200;DHT22;1106;48.762;9.168;2022-10-16T12:22:59;26.00;57.10
2200;DHT22;1106;48.762;9.168;2022-10-16T12:25:29;26.00;56.60
2200;DHT22;1106;48.762;9.168;2022-10-16T12:28:01;25.70;57.20
2200;DHT22;1106;48.762;9.168;2022-10-16T12:30:31;25.70;57.20
2200;DHT22;1106;48.762;9.168;2022-10-16T12:33:00;25.60;57.00
2200;DHT22;1106;48.762;9.168;2022-10-16T12:35:30;25.30;57.80
2200;DHT22;1106;48.762;9.168;2022-10-16T12:38:16;25.10;58.40
2200;DHT22;1106;48.762;9.168;2022-10-16T12:40:44;24.90;59.10
2200;DHT22;1106;48.762;9.168;2022-10-16T12:43:34;24.80;59.60
2200;DHT22;1106;48.762;9.168;2022-10-16T12:46:35;24.80;60.00
2200;DHT22;1106;48.762;9.168;2022-10-16T12:49:28;25.00;59.80
2200;DHT22;1106;48.762;9.168;2022-10-16T12:52:25;25.20;59.60
2200;DHT22;1106;48.762;9.168;2022-10-16T12:54:56;25.30;59.20
2200;DHT22;1106;48.762;9.168;2022-10-16T12:57:41;25.40;59.50
2200;DHT22;1106;48.762;9.168;2022-10-16T13:00:21;25.40;58.70
2200;DHT22;1106;48.762;9.168;2022-10-16T13:06:08;25.10;58.90
2200;DHT22;1106;48.762;9.168;2022-10-16T13:11:56;25.00;59.60
2200;DHT22;1106;48.762;9.168;2022-10-16T13:14:46;25.10;59.90
2200;DHT22;1106;48.762;9.168;2022-10-16T13:17:25;25.30;60.00
2200;DHT22;1106;48.762;9.168;2022-10-16T13:20:00;25.50;59.90
2200;DHT22;1106;48.762;9.168;2022-10-16T13:22:34;25.50;60.10
2200;DHT22;1106;48.762;9.168;2022-10-16T13:25:18;25.50;59.90
2200;DHT22;1106;48.762;9.168;2022-10-16T13:27:54;25.50;59.80
2200;DHT22;1106;48.762;9.168;2022-10-16T13:30:24;25.50;59.90
2200;DHT22;1106;48.762;9.168;2022-10-16T13:32:57;25.60;59.80
2200;DHT22;1106;48.762;9.168;2022-10-16T13:35:26;25.60;59.80
2200;DHT22;1106;48.762;9.168;2022-10-16T13:38:04;25.60;59.90
2200;DHT22;1106;48.762;9.168;2022-10-16T13:40:31;25.70;60.00
2200;DHT22;1106;48.762;9.168;2022-10-16T13:43:01;25.70;59.60
2200;DHT22;1106;48.762;9.168;2022-10-16T13:45:28;25.70;59.50
2200;DHT22;1106;48.762;9.168;2022-10-16T13:48:06;25.70;59.90
2200;DHT22;1106;48.762;9.168;2022-10-16T13:50:37;25.70;60.30
2200;DHT22;1106;48.762;9.168;2022-10-16T13:53:05;25.60;60.20
2200;DHT22;1106;48.762;9.168;2022-10-16T13:55:32;25.70;60.20
2200;DHT22;1106;48.762;9.168;2022-10-16T13:58:12;25.70;60.00
2200;DHT22;1106;48.762;9.168;2022-10-16T14:00:39;25.70;60.00
2200;DHT22;1106;48.762;9.168;2022-10-16T14:03:13;25.70;59.80
2200;DHT22;1106;48.762;9.168;2022-10-16T14:05:46;25.80;59.30
2200;DHT22;1106;48.762;9.168;2022-10-16T14:08:14;25.50;59.70
2200;DHT22;1106;48.762;9.168;2022-10-16T14:10:41;25.30;60.10
2200;DHT22;1106;48.762;9.168;2022-10-16T14:13:17;25.20;60.20
2200;DHT22;1106;48.762;9.168;2022-10-16T14:15:47;25.10;60.80
2200;DHT22;1106;48.762;9.168;2022-10-16T14:18:18;24.90;60.90
2200;DHT22;1106;48.762;9.168;2022-10-16T14:20:46;25.00;60.90
2200;DHT22;1106;48.762;9.168;2022-10-16T14:23:23;25.10;61.00
2200;DHT22;1106;48.762;9.168;2022-10-16T14:26:06;25.20;62.30
2200;DHT22;1106;48.762;9.168;2022-10-16T14:28:46;25.20;62.60
2200;DHT22;1106;48.762;9.168;2022-10-16T14:31:27;25.20;62.70
2200;DHT22;1106;48.762;9.168;2022-10-16T14:34:00;25.20;62.90
2200;DHT22;1106;48.762;9.168;2022-10-16T14:36:28;25.20;62.90
2200;DHT22;1106;48.762;9.168;2022-10-16T14:39:02;25.20;61.80
2200;DHT22;1106;48.762;9.168;2022-10-16T14:41:40;25.20;60.20
2200;DHT22;1106;48.762;9.168;2022-10-16T14:44:12;25.20;60.10
2200;DHT22;1106;48.762;9.168;2022-10-16T14:46:41;25.20;60.00
2200;DHT22;1106;48.762;9.168;2022-10-16T14:49:15;25.20;59.80
2200;DHT22;1106;48.762;9.168;2022-10-16T14:51:43;25.40;60.10
2200;DHT22;1106;48.762;9.168;2022-10-16T14:54:12;25.40;62.20
2200;DHT22;1106;48.762;9.168;2022-10-16T14:56:46;25.40;63.40
2200;DHT22;1106;48.762;9.168;2022-10-16T14:59:19;25.30;64.10
2200;DHT22;1106;48.762;9.168;2022-10-16T15:01:49;25.20;64.70
2200;DHT22;1106;48.762;9.168;2022-10-16T15:04:16;25.20;65.10
2200;DHT22;1106;48.762;9.168;2022-10-16T15:06:44;25.10;65.20
2200;DHT22;1106;48.762;9.168;2022-10-16T15:09:11;25.10;65.40
2200;DHT22;1106;48.762;9.168;2022-10-16T15:11:38;25.10;65.20
2200;DHT22;1106;48.762;9.168;2022-10-16T15:14:05;25.10;65.50
2200;DHT22;1106;48.762;9.168;2022-10-16T15:16:34;25.10;65.40
2200;DHT22;1106;48.762;9.168;2022-10-16T15:19:01;25.10;65.30
2200;DHT22;1106;48.762;9.168;2022-10-16T15:21:30;25.00;65.00
2200;DHT22;1106;48.762;9.168;2022-10-16T15:23:57;24.90;65.20
2200;DHT22;1106;48.762;9.168;2022-10-16T15:26:25;25.00;65.00
2200;DHT22;1106;48.762;9.168;2022-10-16T15:28:52;24.90;64.90
2200;DHT22;1106;48.762;9.168;2022-10-16T15:31:19;24.80;64.80
2200;DHT22;1106;48.762;9.168;2022-10-16T15:33:51;24.80;65.00
2200;DHT22;1106;48.762;9.168;2022-10-16T15:36:25;24.60;65.30
2200;DHT22;1106;48.762;9.168;2022-10-16T15:38:53;24.50;65.60
2200;DHT22;1106;48.762;9.168;2022-10-16T15:41:20;24.40;65.60
2200;DHT22;1106;48.762;9.168;2022-10-16T15:43:48;24.40;67.10
2200;DHT22;1106;48.762;9.168;2022-10-16T15:46:18;24.30;67.90
2200;DHT22;1106;48.762;9.168;2022-10-16T15:48:45;24.10;68.60
2200;DHT22;1106;48.762;9.168;2022-10-16T15:51:14;24.00;69.40
2200;DHT22;1106;48.762;9.168;2022-10-16T15:53:41;23.90;69.60
2200;DHT22;1106;48.762;9.168;2022-10-16T15:56:10;23.90;70.20
2200;DHT22;1106;48.762;9.168;2022-10-16T15:58:37;23.80;70.70
2200;DHT22;1106;48.762;9.168;2022-10-16T16:01:04;23.70;70.80
2200;DHT22;1106;48.762;9.168;2022-10-16T16:03:32;23.50;71.50
2200;DHT22;1106;48.762;9.168;2022-10-16T16:06:03;23.30;71.80
2200;DHT22;1106;48.762;9.168;2022-10-16T16:08:33;23.20;71.80
2200;DHT22;1106;48.762;9.168;2022-10-16T16:11:00;23.00;72.60
2200;DHT22;1106;48.762;9.168;2022-10-16T16:13:27;22.90;73.20
2200;DHT22;1106;48.762;9.168;2022-10-16T16:15:55;22.80;73.70
2200;DHT22;1106;48.762;9.168;2022-10-16T16:18:22;22.70;74.40
2200;DHT22;1106;48.762;9.168;2022-10-16T16:20:49;22.60;74.90
2200;DHT22;1106;48.762;9.168;2022-10-16T16:23:16;22.40;75.30
2200;DHT22;1106;48.762;9.168;2022-10-16T16:25:44;22.30;75.60
2200;DHT22;1106;48.762;9.168;2022-10-16T16:28:11;22.20;75.90
2200;DHT22;1106;48.762;9.168;2022-10-16T16:30:40;22.00;76.60
2200;DHT22;1106;48.762;9.168;2022-10-16T16:33:07;21.80;77.30